Time;durP1;ratioP1;P1;durP2;ratioP2;P2;SDS_P1;SDS_P2;PMS_P1;PMS_P2;Temp;Humidity;BMP_temperature;BMP_pressure;BME280_temperature;BME280_humidity;BME280_pressure;Samples;Min_cycle;Max_cycle;Signal;HPM_P1;HPM_P2
2022/07/02 00:00:02;;;;;;;2.70;1.10;;;17.80;99.90;;;;;;7389350;19;20569;-75
2022/07/02 00:02:32;;;;;;;4.20;1.30;;;17.80;99.90;;;;;;7386820;19;20202;-74
2022/07/02 00:05:01;;;;;;;1.50;1.00;;;17.90;99.90;;;;;;7388544;19;20410;-76
2022/07/02 00:07:27;;;;;;;2.53;1.13;;;17.80;99.90;;;;;;7387722;19;20172;-74
2022/07/02 00:09:55;;;;;;;1.83;1.13;;;17.80;99.90;;;;;;7389655;19;20534;-73
2022/07/02 00:12:22;;;;;;;1.50;1.00;;;17.80;99.90;;;;;;7388642;19;20143;-75
2022/07/02 00:14:53;;;;;;;2.05;1.25;;;17.80;99.90;;;;;;7385427;19;20221;-74
2022/07/02 00:17:19;;;;;;;1.00;0.90;;;17.80;99.90;;;;;;7386851;19;20154;-74
2022/07/02 00:19:45;;;;;;;1.98;1.30;;;17.80;99.90;;;;;;7389778;19;20143;-74
2022/07/02 00:22:11;;;;;;;1.13;1.00;;;17.80;99.90;;;;;;7384349;19;20166;-73
2022/07/02 00:24:40;;;;;;;1.63;1.23;;;17.80;99.90;;;;;;7387561;19;20151;-74
2022/07/02 00:27:09;;;;;;;3.33;1.63;;;17.90;99.90;;;;;;7384441;19;20146;-75
2022/07/02 00:29:59;;;;;;;3.72;1.30;;;17.80;99.90;;;;;;7390372;19;20150;-76
2022/07/02 00:32:31;;;;;;;1.65;1.27;;;17.80;99.90;;;;;;7388270;19;20138;-76
2022/07/02 00:34:59;;;;;;;1.52;1.10;;;17.70;99.90;;;;;;7391752;19;20151;-74
2022/07/02 00:37:26;;;;;;;2.03;1.60;;;17.70;99.90;;;;;;7393949;19;20131;-76
2022/07/02 00:39:53;;;;;;;1.48;1.30;;;17.80;99.90;;;;;;7395205;19;20151;-74
2022/07/02 00:42:20;;;;;;;1.40;1.30;;;17.90;99.90;;;;;;7394235;19;20488;-74
2022/07/02 00:44:47;;;;;;;1.35;1.10;;;18.00;99.90;;;;;;7396644;19;20130;-75
2022/07/02 00:47:16;;;;;;;1.35;1.25;;;18.00;99.90;;;;;;7391768;19;20525;-75
2022/07/02 00:49:42;;;;;;;2.75;1.30;;;17.80;99.90;;;;;;7397896;19;20138;-76
2022/07/02 00:52:08;;;;;;;1.70;1.13;;;17.70;99.90;;;;;;7392622;19;20158;-75
2022/07/02 00:54:37;;;;;;;1.50;1.10;;;17.70;99.90;;;;;;7398306;19;20525;-75
2022/07/02 00:57:03;;;;;;;2.90;1.55;;;17.80;99.90;;;;;;7392545;19;20147;-75
2022/07/02 00:59:30;;;;;;;2.20;1.20;;;17.90;99.90;;;;;;7395237;19;20137;-74
2022/07/02 01:01:56;;;;;;;1.50;1.10;;;17.90;99.90;;;;;;7398425;19;20143;-76
2022/07/02 01:04:23;;;;;;;1.65;1.25;;;17.80;99.90;;;;;;7391133;19;20512;-73
2022/07/02 01:06:50;;;;;;;2.88;1.15;;;17.80;99.90;;;;;;7387791;19;20146;-73
2022/07/02 01:12:03;;;;;;;2.42;1.10;;;17.80;99.90;;;;;;7397111;19;20150;-74
2022/07/02 01:14:30;;;;;;;1.30;1.10;;;17.70;99.90;;;;;;7390092;19;20450;-74
2022/07/02 01:16:56;;;;;;;2.42;1.30;;;17.70;99.90;;;;;;7397917;19;20146;-74
2022/07/02 01:19:23;;;;;;;1.45;1.27;;;17.80;99.90;;;;;;7392127;19;20704;-75
2022/07/02 01:22:25;;;;;;;2.35;1.05;;;17.80;99.90;;;;;;7392459;19;20150;-74
2022/07/02 01:24:52;;;;;;;1.33;1.20;;;17.60;99.90;;;;;;7390762;19;20150;-74
2022/07/02 01:27:20;;;;;;;1.50;1.20;;;17.00;99.90;;;;;;7393741;19;20150;-74
2022/07/02 01:29:46;;;;;;;2.13;1.38;;;17.10;99.90;;;;;;7393480;19;20800;-73
2022/07/02 01:32:12;;;;;;;1.73;1.08;;;17.30;99.90;;;;;;7392106;19;20138;-75
2022/07/02 01:34:50;;;;;;;2.15;1.48;;;17.40;99.90;;;;;;7391359;19;20633;-75
2022/07/02 01:37:18;;;;;;;1.83;1.35;;;17.40;99.90;;;;;;7392036;19;20158;-74
2022/07/02 01:39:45;;;;;;;3.33;1.75;;;17.40;99.90;;;;;;7395193;19;20552;-75
2022/07/02 01:42:12;;;;;;;1.33;1.10;;;17.30;99.90;;;;;;7391260;19;20167;-76
2022/07/02 01:44:38;;;;;;;1.30;1.20;;;17.10;99.90;;;;;;7392729;19;20177;-75
2022/07/02 01:47:12;;;;;;;1.63;1.00;;;17.00;99.90;;;;;;7391484;19;20138;-74
2022/07/02 01:49:39;;;;;;;1.55;1.02;;;17.20;99.90;;;;;;7389044;19;20692;-74
2022/07/02 01:52:06;;;;;;;2.40;1.15;;;17.40;99.90;;;;;;7394537;19;20492;-75
2022/07/02 01:54:32;;;;;;;3.70;1.15;;;17.50;99.90;;;;;;7396530;19;20135;-75
2022/07/02 01:57:00;;;;;;;1.63;1.05;;;17.10;99.90;;;;;;7392052;19;20151;-75
2022/07/02 01:59:26;;;;;;;1.35;1.05;;;17.00;99.90;;;;;;7390281;19;20144;-74
2022/07/02 02:01:52;;;;;;;3.88;1.25;;;16.80;99.90;;;;;;7393108;19;20481;-73
2022/07/02 02:04:18;;;;;;;1.02;0.93;;;16.90;99.90;;;;;;7388487;19;20178;-73
2022/07/02 02:06:44;;;;;;;1.63;1.20;;;16.60;99.90;;;;;;7394692;19;20161;-76
2022/07/02 02:09:10;;;;;;;1.95;1.13;;;16.50;99.90;;;;;;7388727;19;20213;-75
2022/07/02 02:11:36;;;;;;;1.20;1.10;;;16.70;99.90;;;;;;7391781;19;20138;-75
2022/07/02 02:14:01;;;;;;;1.08;0.98;;;16.30;99.90;;;;;;7396188;19;20144;-73
2022/07/02 02:16:29;;;;;;;1.50;0.90;;;16.30;99.90;;;;;;7389820;19;20743;-74
2022/07/02 02:18:56;;;;;;;1.90;1.30;;;16.20;99.90;;;;;;7388797;19;20279;-75
2022/07/02 02:21:27;;;;;;;3.17;1.02;;;16.20;99.90;;;;;;7391312;19;20451;-73
2022/07/02 02:23:54;;;;;;;1.42;1.02;;;16.40;99.90;;;;;;7388840;19;20226;-74
2022/07/02 02:26:20;;;;;;;1.13;1.02;;;16.50;99.90;;;;;;7391267;19;20153;-75
2022/07/02 02:28:46;;;;;;;2.22;1.08;;;16.50;99.90;;;;;;7386817;19;20126;-73
2022/07/02 02:31:12;;;;;;;1.45;1.10;;;16.60;99.90;;;;;;7388384;19;20145;-74
2022/07/02 02:33:38;;;;;;;2.55;1.30;;;16.80;99.90;;;;;;7390601;19;20506;-74
2022/07/02 02:36:05;;;;;;;1.55;1.10;;;17.00;99.90;;;;;;7391050;19;20146;-74
2022/07/02 02:38:31;;;;;;;1.35;0.98;;;16.90;99.90;;;;;;7390970;19;20146;-75
2022/07/02 02:40:57;;;;;;;1.25;1.05;;;16.60;99.90;;;;;;7387818;19;20506;-76
2022/07/02 02:43:23;;;;;;;1.17;0.98;;;16.30;99.90;;;;;;7389491;19;20142;-75
2022/07/02 02:45:48;;;;;;;1.17;1.05;;;16.20;99.90;;;;;;7391036;19;20126;-76
2022/07/02 02:48:17;;;;;;;2.40;1.17;;;16.50;99.90;;;;;;7387668;19;20131;-76
2022/07/02 02:50:43;;;;;;;1.40;0.98;;;16.80;99.90;;;;;;7388724;19;20621;-76
2022/07/02 02:53:09;;;;;;;1.88;1.30;;;17.10;99.90;;;;;;7393503;19;20143;-75
2022/07/02 02:55:34;;;;;;;2.28;1.30;;;17.20;99.90;;;;;;7384841;19;20154;-75
2022/07/02 02:58:00;;;;;;;1.60;1.20;;;17.00;99.90;;;;;;7390062;19;20139;-73
2022/07/02 03:00:27;;;;;;;1.02;0.90;;;17.00;99.90;;;;;;7388371;19;20150;-74
2022/07/02 03:02:53;;;;;;;2.65;1.15;;;17.00;99.90;;;;;;7389829;19;20555;-74
2022/07/02 03:05:18;;;;;;;2.45;1.30;;;17.00;99.90;;;;;;7389760;19;20163;-74
2022/07/02 03:07:44;;;;;;;1.88;1.20;;;16.60;99.90;;;;;;7387158;19;20165;-74
2022/07/02 03:10:10;;;;;;;1.40;1.10;;;16.40;99.90;;;;;;7389375;19;20206;-75
2022/07/02 03:12:36;;;;;;;1.33;1.20;;;15.90;99.90;;;;;;7392489;19;20142;-73
2022/07/02 03:15:02;;;;;;;2.53;1.15;;;15.80;99.90;;;;;;7390233;19;20669;-75
2022/07/02 03:17:28;;;;;;;3.90;1.10;;;16.20;99.90;;;;;;7384988;19;20600;-74
2022/07/02 03:19:53;;;;;;;1.48;1.00;;;16.40;99.90;;;;;;7387344;19;20138;-75
2022/07/02 03:22:19;;;;;;;1.27;1.08;;;16.30;99.90;;;;;;7391634;19;20154;-73
2022/07/02 03:24:45;;;;;;;1.20;1.00;;;16.40;99.90;;;;;;7388758;19;20147;-74
2022/07/02 03:27:10;;;;;;;5.30;1.00;;;16.50;99.90;;;;;;7386294;19;20616;-74
2022/07/02 03:29:36;;;;;;;2.67;1.17;;;16.60;99.90;;;;;;7388432;19;20154;-74
2022/07/02 03:32:02;;;;;;;3.72;1.05;;;16.70;99.90;;;;;;7390547;19;20144;-76
2022/07/02 03:34:28;;;;;;;2.10;1.30;;;16.90;99.90;;;;;;7389610;19;20137;-74
2022/07/02 03:36:54;;;;;;;1.05;0.90;;;16.70;99.90;;;;;;7388591;19;20139;-75
2022/07/02 03:39:19;;;;;;;1.67;1.00;;;16.60;99.90;;;;;;7390264;19;20166;-74
2022/07/02 03:41:45;;;;;;;1.00;0.90;;;16.50;99.90;;;;;;7389038;19;20130;-73
2022/07/02 03:44:11;;;;;;;1.60;1.10;;;16.30;99.90;;;;;;7388176;19;20747;-75
2022/07/02 03:46:37;;;;;;;2.03;1.33;;;16.30;99.90;;;;;;7389547;19;20225;-76
2022/07/02 03:49:02;;;;;;;1.35;0.93;;;16.60;99.90;;;;;;7383593;19;20150;-75
2022/07/02 03:51:28;;;;;;;1.98;1.00;;;16.70;99.90;;;;;;7391438;19;20174;-75
2022/07/02 03:53:54;;;;;;;1.13;0.95;;;16.70;99.90;;;;;;7385100;19;20228;-73
2022/07/02 03:56:20;;;;;;;1.60;1.23;;;16.80;99.90;;;;;;7388893;19;20131;-75
2022/07/02 03:58:46;;;;;;;2.00;1.40;;;16.80;99.90;;;;;;7386691;19;20134;-73
2022/07/02 04:01:11;;;;;;;2.63;1.30;;;16.70;99.90;;;;;;7389284;19;20151;-75
2022/07/02 04:03:38;;;;;;;1.60;1.23;;;16.50;99.90;;;;;;7384981;19;20174;-74
2022/07/02 04:06:04;;;;;;;2.72;1.42;;;16.30;99.90;;;;;;7387010;19;20137;-74
2022/07/02 04:08:30;;;;;;;3.20;1.30;;;16.30;99.90;;;;;;7385771;19;20209;-76
2022/07/02 04:10:55;;;;;;;2.15;1.30;;;16.40;99.90;;;;;;7394309;19;20190;-75
2022/07/02 04:13:21;;;;;;;2.33;1.40;;;16.40;99.90;;;;;;7395617;19;20198;-73
2022/07/02 04:15:47;;;;;;;1.92;1.30;;;16.70;99.90;;;;;;7392711;19;20130;-74
2022/07/02 04:18:13;;;;;;;3.28;1.52;;;16.80;99.90;;;;;;7392224;19;20142;-74
2022/07/02 04:20:38;;;;;;;2.40;1.70;;;17.00;99.90;;;;;;7389693;19;20154;-75
2022/07/02 04:23:04;;;;;;;1.67;1.40;;;17.00;99.90;;;;;;7399384;19;20147;-76
2022/07/02 04:25:30;;;;;;;2.08;1.67;;;16.80;99.90;;;;;;7394098;19;20193;-75
2022/07/02 04:27:56;;;;;;;3.67;1.73;;;16.60;99.90;;;;;;7393736;19;20158;-75
2022/07/02 04:30:22;;;;;;;3.10;1.38;;;16.70;99.90;;;;;;7392499;19;20153;-74
2022/07/02 04:32:48;;;;;;;1.65;1.42;;;16.90;99.90;;;;;;7395022;19;20139;-76
2022/07/02 04:35:13;;;;;;;1.80;1.17;;;16.90;99.90;;;;;;7391954;19;20707;-73
2022/07/02 04:37:40;;;;;;;2.15;1.27;;;16.90;99.90;;;;;;7394979;19;20246;-75
2022/07/02 04:40:07;;;;;;;1.88;1.50;;;16.90;99.90;;;;;;7395605;19;20192;-76
2022/07/02 04:42:33;;;;;;;0.90;0.90;;;17.00;99.90;;;;;;7393938;19;20169;-76
2022/07/02 04:44:58;;;;;;;1.42;1.30;;;16.90;99.90;;;;;;7394037;19;20670;-75
2022/07/02 04:47:24;;;;;;;3.28;1.25;;;16.90;99.90;;;;;;7391845;19;20135;-75
2022/07/02 04:49:50;;;;;;;1.50;1.20;;;16.90;99.90;;;;;;7394864;19;20135;-76
2022/07/02 04:52:16;;;;;;;2.47;1.25;;;17.00;99.90;;;;;;7392272;19;20162;-74
2022/07/02 04:54:42;;;;;;;1.00;0.88;;;17.20;99.90;;;;;;7390602;19;20138;-75
2022/07/02 04:57:08;;;;;;;1.80;1.40;;;17.10;99.90;;;;;;7394118;19;20150;-77
2022/07/02 04:59:34;;;;;;;2.72;1.75;;;17.10;99.90;;;;;;7394545;19;20712;-74
2022/07/02 05:01:59;;;;;;;1.50;1.40;;;17.10;99.90;;;;;;7393531;19;20138;-75
2022/07/02 05:04:25;;;;;;;2.00;1.70;;;17.00;99.90;;;;;;7391240;19;20952;-76
2022/07/02 05:06:51;;;;;;;1.95;1.45;;;17.00;99.90;;;;;;7392864;19;20488;-74
2022/07/02 05:09:17;;;;;;;2.30;1.20;;;17.00;99.90;;;;;;7389683;19;20154;-74
2022/07/02 05:11:43;;;;;;;1.58;1.45;;;17.10;99.90;;;;;;7392783;19;20173;-76
2022/07/02 05:14:09;;;;;;;1.77;1.58;;;16.90;99.90;;;;;;7393246;19;20748;-76
2022/07/02 05:16:35;;;;;;;1.55;1.38;;;16.60;99.90;;;;;;7393830;19;20153;-73
2022/07/02 05:19:01;;;;;;;2.17;1.40;;;16.50;99.90;;;;;;7392909;19;20143;-74
2022/07/02 05:21:26;;;;;;;1.48;1.35;;;16.50;99.90;;;;;;7391072;19;20206;-75
2022/07/02 05:23:52;;;;;;;3.65;2.10;;;16.70;99.90;;;;;;7391197;19;20608;-74
2022/07/02 05:26:20;;;;;;;1.52;1.35;;;16.80;99.90;;;;;;7394132;19;20138;-76
2022/07/02 05:28:46;;;;;;;1.55;1.25;;;17.00;99.90;;;;;;7388731;19;20138;-75
2022/07/02 05:31:11;;;;;;;2.15;1.60;;;16.90;99.90;;;;;;7392699;19;20149;-76
2022/07/02 05:33:37;;;;;;;4.30;1.90;;;17.00;99.90;;;;;;7390819;19;20143;-76
2022/07/02 05:36:03;;;;;;;2.83;1.60;;;17.20;99.90;;;;;;7392999;19;20130;-75
2022/07/02 05:38:29;;;;;;;2.60;1.70;;;17.40;99.90;;;;;;7393624;19;20148;-76
2022/07/02 05:40:55;;;;;;;3.28;2.03;;;17.60;99.90;;;;;;7396700;19;20131;-76
2022/07/02 05:43:20;;;;;;;2.03;1.77;;;17.70;99.90;;;;;;7395262;19;20176;-76
2022/07/02 05:45:48;;;;;;;6.75;1.88;;;17.80;99.90;;;;;;7391842;19;20158;-76
2022/07/02 05:48:14;;;;;;;2.53;1.48;;;17.80;99.90;;;;;;7391703;19;20246;-74
2022/07/02 05:50:40;;;;;;;4.63;2.10;;;17.80;99.90;;;;;;7393003;19;21014;-74
2022/07/02 05:53:06;;;;;;;2.88;1.80;;;17.50;99.90;;;;;;7395656;19;20612;-73
2022/07/02 05:55:31;;;;;;;2.58;1.38;;;17.70;99.90;;;;;;7390823;19;20150;-73
2022/07/02 05:57:57;;;;;;;3.50;1.50;;;17.80;99.90;;;;;;7390663;19;20139;-75
2022/07/02 06:00:23;;;;;;;2.10;1.40;;;17.90;99.90;;;;;;7395295;19;20135;-76
2022/07/02 06:02:49;;;;;;;2.35;1.50;;;17.80;99.90;;;;;;7387145;19;20153;-76
2022/07/02 06:07:59;;;;;;;1.70;1.00;;;18.10;99.90;;;;;;7392437;19;20131;-77
2022/07/02 06:10:25;;;;;;;1.17;0.90;;;18.00;99.90;;;;;;7388221;19;20138;-76
2022/07/02 06:12:52;;;;;;;1.15;1.00;;;18.00;99.90;;;;;;7391315;19;20158;-77
2022/07/02 06:15:19;;;;;;;1.88;0.90;;;18.20;99.90;;;;;;7391595;19;20158;-77
2022/07/02 06:17:46;;;;;;;2.30;1.05;;;18.50;99.90;;;;;;7392795;19;20139;-76
2022/07/02 06:20:13;;;;;;;2.58;0.80;;;19.20;99.90;;;;;;7395221;19;20138;-77
2022/07/02 06:22:39;;;;;;;1.35;0.75;;;19.40;99.90;;;;;;7388569;19;20142;-77
2022/07/02 06:25:07;;;;;;;1.33;0.70;;;19.90;99.90;;;;;;7391572;19;20161;-76
2022/07/02 06:27:34;;;;;;;1.00;0.70;;;20.50;99.90;;;;;;7391659;19;20161;-77
2022/07/02 06:30:09;;;;;;;0.50;0.50;;;21.00;99.90;;;;;;7392506;19;20586;-78
2022/07/02 06:32:36;;;;;;;0.90;0.75;;;21.70;99.90;;;;;;7392252;19;20175;-79
2022/07/02 06:35:02;;;;;;;2.58;1.33;;;22.20;99.90;;;;;;7393985;19;20155;-78
2022/07/02 06:37:29;;;;;;;2.05;0.65;;;22.50;99.90;;;;;;7391370;19;20145;-78
2022/07/02 06:39:54;;;;;;;0.95;0.90;;;23.30;99.90;;;;;;7392443;19;20186;-80
2022/07/02 06:42:22;;;;;;;1.27;0.68;;;23.60;99.90;;;;;;7392248;19;20143;-83
2022/07/02 06:44:50;;;;;;;2.40;0.73;;;23.80;99.90;;;;;;7393098;19;20163;-76
2022/07/02 06:47:17;;;;;;;0.80;0.70;;;24.10;99.90;;;;;;7392117;19;20247;-82
2022/07/02 06:49:43;;;;;;;2.35;0.60;;;24.50;99.90;;;;;;7391735;19;20146;-83
2022/07/02 06:52:10;;;;;;;0.93;0.50;;;24.60;99.90;;;;;;7393573;19;20895;-83
2022/07/02 06:54:36;;;;;;;1.30;0.63;;;24.80;99.90;;;;;;7399460;19;20154;-79
2022/07/02 06:57:03;;;;;;;1.08;0.60;;;24.90;99.90;;;;;;7397010;19;20231;-77
2022/07/02 06:59:29;;;;;;;0.50;0.50;;;24.20;99.90;;;;;;7391118;19;20214;-77
2022/07/02 07:01:55;;;;;;;1.15;0.60;;;24.40;99.90;;;;;;7388497;19;20168;-76
2022/07/02 07:04:21;;;;;;;0.40;0.40;;;24.60;99.90;;;;;;7388750;19;20178;-82
2022/07/02 07:06:56;;;;;;;1.25;0.60;;;24.60;99.90;;;;;;7393765;19;20137;-84
2022/07/02 07:09:24;;;;;;;0.40;0.40;;;24.70;99.90;;;;;;7393716;19;20141;-78
2022/07/02 07:11:50;;;;;;;2.85;0.57;;;25.00;99.90;;;;;;7408648;19;20135;-78
2022/07/02 07:14:17;;;;;;;0.50;0.50;;;24.90;99.90;;;;;;7395769;19;20147;-77
2022/07/02 07:16:44;;;;;;;0.30;0.30;;;24.60;99.90;;;;;;7396243;19;20147;-87
2022/07/02 07:19:11;;;;;;;0.82;0.60;;;24.90;99.90;;;;;;7393617;19;20138;-79
2022/07/02 07:21:39;;;;;;;1.35;0.45;;;24.80;99.90;;;;;;7393566;19;20539;-81
2022/07/02 07:24:06;;;;;;;0.98;0.60;;;25.10;99.90;;;;;;7394349;19;20138;-87
2022/07/02 07:26:31;;;;;;;0.60;0.50;;;25.30;99.90;;;;;;7393348;19;20147;-84
2022/07/02 07:28:58;;;;;;;0.55;0.47;;;25.70;99.90;;;;;;7391446;19;20576;-86
2022/07/02 07:31:24;;;;;;;0.30;0.30;;;25.70;99.90;;;;;;7394606;19;20138;-85
2022/07/02 07:33:52;;;;;;;0.40;0.40;;;25.50;99.90;;;;;;7393879;19;20799;-82
2022/07/02 07:36:19;;;;;;;5.15;0.52;;;25.40;99.90;;;;;;7395927;19;20150;-85
2022/07/02 07:38:46;;;;;;;0.50;0.50;;;25.30;99.90;;;;;;7390229;19;20134;-83
2022/07/02 07:41:12;;;;;;;1.38;0.60;;;25.50;99.90;;;;;;7389734;19;20138;-76
2022/07/02 07:43:38;;;;;;;1.27;0.60;;;25.90;99.90;;;;;;7390414;19;20143;-80
2022/07/02 07:46:04;;;;;;;0.40;0.40;;;25.70;99.90;;;;;;7390303;19;20593;-81
2022/07/02 07:48:30;;;;;;;0.50;0.40;;;25.60;99.90;;;;;;7390916;19;20145;-75
2022/07/02 07:50:56;;;;;;;1.52;0.50;;;25.50;99.90;;;;;;7390642;19;20138;-74
2022/07/02 07:53:22;;;;;;;2.05;0.60;;;25.80;99.50;;;;;;7384100;19;20142;-75
2022/07/02 07:55:48;;;;;;;1.00;0.60;;;25.80;99.10;;;;;;7385935;19;20158;-75
2022/07/02 07:58:15;;;;;;;0.43;0.40;;;26.00;99.50;;;;;;7385114;19;20139;-73
2022/07/02 08:00:41;;;;;;;0.90;0.45;;;26.20;98.40;;;;;;7387735;19;20150;-73
2022/07/02 08:03:07;;;;;;;0.90;0.45;;;26.40;98.20;;;;;;7385800;19;20590;-72
2022/07/02 08:05:35;;;;;;;0.50;0.50;;;26.30;97.60;;;;;;7386599;19;20157;-74
2022/07/02 08:08:02;;;;;;;0.77;0.60;;;26.10;98.10;;;;;;7385916;19;20165;-72
2022/07/02 08:10:28;;;;;;;4.80;0.68;;;26.10;98.20;;;;;;7387320;19;20154;-75
2022/07/02 08:12:53;;;;;;;0.63;0.47;;;26.30;97.90;;;;;;7387253;19;20135;-74
2022/07/02 08:15:19;;;;;;;0.77;0.50;;;26.50;97.30;;;;;;7384043;19;20142;-75
2022/07/02 08:17:45;;;;;;;0.50;0.30;;;26.40;97.10;;;;;;7388470;19;20625;-74
2022/07/02 08:20:12;;;;;;;0.57;0.40;;;26.50;96.80;;;;;;7387827;19;20158;-72
2022/07/02 08:22:38;;;;;;;0.60;0.30;;;26.90;96.20;;;;;;7387409;19;20158;-74
2022/07/02 08:25:06;;;;;;;0.47;0.40;;;27.10;95.90;;;;;;7383953;19;20475;-75
2022/07/02 08:27:32;;;;;;;0.80;0.50;;;27.00;95.70;;;;;;7387371;19;20155;-74
2022/07/02 08:29:58;;;;;;;0.40;0.40;;;26.60;95.80;;;;;;7386410;19;20258;-75
2022/07/02 08:32:25;;;;;;;0.65;0.45;;;26.70;96.10;;;;;;7386122;19;20155;-73
2022/07/02 08:34:54;;;;;;;1.33;0.60;;;26.80;96.00;;;;;;7384843;19;20147;-74
2022/07/02 08:37:22;;;;;;;0.30;0.30;;;27.00;95.30;;;;;;7387560;19;20142;-75
2022/07/02 08:39:48;;;;;;;0.65;0.32;;;27.30;94.30;;;;;;7387169;19;20175;-75
2022/07/02 08:42:24;;;;;;;0.55;0.47;;;27.40;94.90;;;;;;7385392;19;20146;-76
2022/07/02 08:44:56;;;;;;;1.05;0.65;;;27.40;94.80;;;;;;7388560;19;20620;-75
2022/07/02 08:47:23;;;;;;;0.80;0.80;;;27.40;94.70;;;;;;7382857;19;20472;-74
2022/07/02 08:49:51;;;;;;;2.60;0.45;;;27.20;93.90;;;;;;7385963;19;20554;-74
2022/07/02 08:52:19;;;;;;;2.00;0.70;;;27.20;93.80;;;;;;7386597;19;20222;-74
2022/07/02 08:54:46;;;;;;;0.77;0.40;;;27.20;94.50;;;;;;7386254;19;20138;-75
2022/07/02 08:57:47;;;;;;;0.40;0.30;;;27.20;94.10;;;;;;7391132;19;20231;-74
2022/07/02 09:00:13;;;;;;;0.30;0.30;;;27.10;94.20;;;;;;7396153;19;20137;-74
2022/07/02 09:02:40;;;;;;;0.43;0.43;;;26.90;93.90;;;;;;7390928;19;20127;-74
2022/07/02 09:05:08;;;;;;;4.40;1.00;;;26.70;94.20;;;;;;7392263;19;20137;-75
2022/07/02 09:07:36;;;;;;;7.60;1.48;;;26.60;94.50;;;;;;7392639;19;20152;-75
2022/07/02 09:10:04;;;;;;;3.05;0.60;;;26.70;95.10;;;;;;7391285;19;20577;-74
2022/07/02 09:12:31;;;;;;;3.50;0.38;;;26.80;94.20;;;;;;7394837;19;20512;-74
2022/07/02 09:14:58;;;;;;;3.35;0.50;;;26.40;93.50;;;;;;7393264;19;20150;-74
2022/07/02 09:17:24;;;;;;;1.98;0.57;;;26.20;94.10;;;;;;7391114;19;20131;-74
2022/07/02 09:19:50;;;;;;;1.77;0.43;;;25.90;94.40;;;;;;7389113;19;20165;-74
2022/07/02 09:22:16;;;;;;;2.58;0.60;;;25.90;95.10;;;;;;7392301;19;20238;-77
2022/07/02 09:24:43;;;;;;;4.50;0.70;;;26.00;94.80;;;;;;7392616;19;20154;-71
2022/07/02 09:27:14;;;;;;;0.85;0.60;;;26.30;94.40;;;;;;7388948;19;20158;-74
2022/07/02 09:29:55;;;;;;;2.05;0.63;;;26.40;94.90;;;;;;7391775;19;20142;-76
2022/07/02 09:32:21;;;;;;;2.78;0.60;;;26.30;93.90;;;;;;7392325;19;20589;-74
2022/07/02 09:34:50;;;;;;;0.40;0.40;;;26.10;93.80;;;;;;7392617;19;20656;-74
2022/07/02 09:37:17;;;;;;;1.52;0.50;;;26.00;91.80;;;;;;7391313;19;20139;-73
2022/07/02 09:39:45;;;;;;;0.60;0.40;;;26.10;91.60;;;;;;7393586;19;20154;-75
2022/07/02 09:42:11;;;;;;;0.52;0.40;;;26.00;92.00;;;;;;7390672;19;20195;-72
2022/07/02 09:44:47;;;;;;;0.50;0.47;;;26.00;92.20;;;;;;7390527;19;20152;-74
2022/07/02 09:47:13;;;;;;;0.68;0.43;;;26.20;91.60;;;;;;7393317;19;20222;-73
2022/07/02 09:49:50;;;;;;;0.60;0.50;;;26.20;90.40;;;;;;7392091;19;20500;-74
2022/07/02 09:52:17;;;;;;;0.52;0.40;;;26.10;90.00;;;;;;7392863;19;20154;-73
2022/07/02 09:54:43;;;;;;;1.42;0.50;;;26.10;90.10;;;;;;7390234;19;20154;-73
2022/07/02 09:57:11;;;;;;;0.82;0.40;;;26.00;89.90;;;;;;7392456;19;20143;-73
2022/07/02 09:59:38;;;;;;;0.50;0.40;;;25.90;89.10;;;;;;7389981;19;20143;-73
2022/07/02 10:02:05;;;;;;;1.02;0.60;;;25.80;89.70;;;;;;7389761;19;20150;-73
2022/07/02 10:04:33;;;;;;;1.95;1.10;;;25.50;90.70;;;;;;7390505;19;20154;-75
2022/07/02 10:07:00;;;;;;;0.73;0.40;;;25.40;91.10;;;;;;7389345;19;20489;-75
2022/07/02 10:09:27;;;;;;;0.50;0.45;;;25.40;91.80;;;;;;7391874;19;20154;-72
2022/07/02 10:11:54;;;;;;;0.45;0.30;;;25.40;92.00;;;;;;7388778;19;20207;-72
2022/07/02 10:14:21;;;;;;;1.05;0.50;;;25.60;92.00;;;;;;7388754;19;20638;-73
2022/07/02 10:16:51;;;;;;;1.27;0.68;;;25.70;91.20;;;;;;7392338;19;20597;-76
2022/07/02 10:19:17;;;;;;;0.32;0.32;;;25.50;91.20;;;;;;7392090;19;20167;-75
2022/07/02 10:21:44;;;;;;;1.75;0.45;;;25.50;91.80;;;;;;7385749;19;20174;-74
2022/07/02 10:24:12;;;;;;;1.42;0.40;;;25.70;91.20;;;;;;7391235;19;20139;-72
2022/07/02 10:26:39;;;;;;;3.05;0.95;;;25.80;91.40;;;;;;7390698;19;20150;-73
2022/07/02 10:29:06;;;;;;;0.50;0.40;;;25.70;90.60;;;;;;7386527;19;20147;-78
2022/07/02 10:31:41;;;;;;;0.45;0.45;;;25.60;91.60;;;;;;7391899;19;20190;-76
2022/07/02 10:34:22;;;;;;;0.73;0.60;;;25.50;90.50;;;;;;7390420;19;20138;-75
2022/07/02 10:36:48;;;;;;;1.02;0.60;;;25.40;90.90;;;;;;7391657;19;20134;-76
2022/07/02 10:39:18;;;;;;;1.77;0.43;;;25.40;90.80;;;;;;7388817;19;20143;-75
2022/07/02 10:41:45;;;;;;;0.88;0.75;;;25.50;91.20;;;;;;7394191;19;20135;-73
2022/07/02 10:44:11;;;;;;;0.60;0.57;;;25.50;90.80;;;;;;7387320;19;20168;-72
2022/07/02 10:46:37;;;;;;;1.50;0.40;;;25.30;90.50;;;;;;7389185;19;20135;-76
2022/07/02 10:49:07;;;;;;;1.67;0.40;;;25.30;90.80;;;;;;7386728;19;20138;-73
2022/07/02 10:51:35;;;;;;;0.60;0.35;;;25.40;91.10;;;;;;7391580;19;20226;-75
2022/07/02 10:54:03;;;;;;;0.70;0.68;;;25.60;90.30;;;;;;7391004;19;20142;-76
2022/07/02 10:56:30;;;;;;;0.77;0.30;;;25.60;90.50;;;;;;7390625;19;20139;-76
2022/07/02 10:58:57;;;;;;;0.82;0.50;;;25.50;91.10;;;;;;7389460;19;20594;-75
2022/07/02 11:01:24;;;;;;;2.38;0.63;;;25.50;91.60;;;;;;7389165;19;20182;-75
2022/07/02 11:03:58;;;;;;;0.57;0.50;;;25.60;91.20;;;;;;7390641;19;20209;-76
2022/07/02 11:06:29;;;;;;;0.63;0.45;;;25.60;90.90;;;;;;7390153;19;20168;-72
2022/07/02 11:09:04;;;;;;;0.30;0.30;;;25.70;90.80;;;;;;7388672;19;20165;-73
2022/07/02 11:11:33;;;;;;;1.08;0.85;;;25.60;90.90;;;;;;7387619;19;20137;-73
2022/07/02 11:14:10;;;;;;;0.40;0.40;;;25.70;91.20;;;;;;7387790;19;20224;-73
2022/07/02 11:16:41;;;;;;;0.70;0.60;;;25.70;90.50;;;;;;7389150;19;20704;-73
2022/07/02 11:19:24;;;;;;;1.08;0.45;;;25.40;90.80;;;;;;7389459;19;20158;-73
2022/07/02 11:21:54;;;;;;;7.88;0.45;;;25.20;90.50;;;;;;7386616;19;20150;-72
2022/07/02 11:24:21;;;;;;;1.48;0.30;;;25.20;90.50;;;;;;7389690;19;20238;-75
2022/07/02 11:26:48;;;;;;;1.20;0.40;;;25.30;90.70;;;;;;7386461;19;20162;-76
2022/07/02 11:29:14;;;;;;;0.70;0.40;;;25.50;90.30;;;;;;7386969;19;20150;-74
2022/07/02 11:31:46;;;;;;;0.35;0.35;;;25.50;90.40;;;;;;7386520;19;20146;-76
2022/07/02 11:34:16;;;;;;;1.95;0.60;;;25.60;90.60;;;;;;7384818;19;20175;-75
2022/07/02 11:36:42;;;;;;;0.40;0.40;;;25.70;90.20;;;;;;7388061;19;20645;-76
2022/07/02 11:39:13;;;;;;;0.88;0.50;;;25.70;89.80;;;;;;7387990;19;20214;-73
2022/07/02 11:41:39;;;;;;;0.82;0.52;;;25.70;90.40;;;;;;7390631;19;20139;-75
2022/07/02 11:44:25;;;;;;;0.80;0.30;;;25.70;89.50;;;;;;7387399;19;20152;-74
2022/07/02 11:46:56;;;;;;;0.50;0.50;;;25.70;88.40;;;;;;7387528;19;20180;-74
2022/07/02 11:49:24;;;;;;;0.82;0.55;;;25.80;87.10;;;;;;7387095;19;20961;-74
2022/07/02 11:51:52;;;;;;;1.02;0.38;;;25.90;86.70;;;;;;7387421;19;20161;-73
2022/07/02 11:54:19;;;;;;;1.13;0.40;;;25.70;86.70;;;;;;7388503;19;20138;-74
2022/07/02 11:56:47;;;;;;;0.40;0.40;;;25.70;87.30;;;;;;7388281;19;20165;-74
2022/07/02 11:59:15;;;;;;;4.20;1.92;;;25.80;89.10;;;;;;7386103;19;20138;-74
2022/07/02 12:01:43;;;;;;;1.80;0.80;;;26.00;88.60;;;;;;7390149;19;20166;-74
2022/07/02 12:04:11;;;;;;;0.40;0.40;;;26.10;88.90;;;;;;7384675;19;20178;-74
2022/07/02 12:06:45;;;;;;;1.02;0.60;;;26.00;89.30;;;;;;7389779;19;20167;-73
2022/07/02 12:09:14;;;;;;;0.32;0.30;;;26.10;89.30;;;;;;7387240;19;20138;-73
2022/07/02 12:11:42;;;;;;;2.10;0.47;;;26.10;87.00;;;;;;7384129;19;20155;-75
2022/07/02 12:14:09;;;;;;;0.98;0.82;;;26.10;87.00;;;;;;7387651;19;20142;-72
2022/07/02 12:16:36;;;;;;;1.90;0.60;;;26.10;88.80;;;;;;7386617;19;20202;-72
2022/07/02 12:19:05;;;;;;;1.48;1.30;;;26.20;88.10;;;;;;7388660;19;20165;-73
2022/07/02 12:21:39;;;;;;;0.93;0.52;;;26.30;87.10;;;;;;7386605;19;20162;-74
2022/07/02 12:24:25;;;;;;;0.75;0.52;;;26.10;87.40;;;;;;7384075;19;20161;-75
2022/07/02 12:27:11;;;;;;;1.42;1.05;;;26.10;87.30;;;;;;7384488;19;20149;-72
2022/07/02 12:29:58;;;;;;;0.50;0.40;;;26.20;86.70;;;;;;7384201;19;20171;-75
2022/07/02 12:32:38;;;;;;;1.15;0.68;;;26.10;85.80;;;;;;7395018;19;20134;-74
2022/07/02 12:35:10;;;;;;;0.80;0.60;;;26.00;88.00;;;;;;7393768;19;20131;-74
2022/07/02 12:37:39;;;;;;;1.02;0.70;;;26.10;86.80;;;;;;7395167;19;20477;-74
2022/07/02 12:40:10;;;;;;;0.75;0.60;;;26.20;87.90;;;;;;7393635;19;20165;-75
2022/07/02 12:42:49;;;;;;;2.67;0.70;;;26.30;86.80;;;;;;7392424;19;20154;-74
2022/07/02 12:45:48;;;;;;;1.10;0.50;;;26.40;87.10;;;;;;7393262;19;20509;-73
2022/07/02 12:48:19;;;;;;;0.63;0.55;;;26.20;88.40;;;;;;7388520;19;20218;-73
2022/07/02 12:50:48;;;;;;;0.40;0.40;;;26.30;88.70;;;;;;7391005;19;20238;-74
2022/07/02 12:53:16;;;;;;;0.65;0.60;;;26.30;87.10;;;;;;7397120;19;20134;-72
2022/07/02 12:55:51;;;;;;;0.50;0.50;;;26.20;87.60;;;;;;7390869;19;20146;-73